Time;durP1;ratioP1;P1;durP2;ratioP2;P2;SDS_P1;SDS_P2;PMS_P1;PMS_P2;Temp;Humidity;BMP_temperature;BMP_pressure;BME280_temperature;BME280_humidity;BME280_pressure;Samples;Min_cycle;Max_cycle;Signal;HPM_P1;HPM_P2
2021/10/24 00:00:35;;;;;;;31.40;19.20;;;;;;;5.23;83.01;100330.98;112612;1193;60946;-82
2021/10/24 00:03:12;;;;;;;33.90;19.40;;;;;;;5.22;83.06;100335.23;112663;1192;61148;-82
2021/10/24 00:05:39;;;;;;;33.20;19.70;;;;;;;5.22;83.01;100337.54;112641;1192;60956;-82
2021/10/24 00:08:05;;;;;;;33.80;21.50;;;;;;;5.22;83.07;100337.70;112656;1193;60963;-82
2021/10/24 00:10:32;;;;;;;31.60;18.70;;;;;;;5.22;83.19;100341.23;112685;1192;61026;-82
2021/10/24 00:12:58;;;;;;;34.50;18.50;;;;;;;5.20;83.18;100338.97;112651;1193;64029;-82
2021/10/24 00:15:25;;;;;;;37.40;20.40;;;;;;;5.21;83.11;100338.96;112670;1192;60962;-85
2021/10/24 00:17:52;;;;;;;36.90;18.40;;;;;;;5.21;83.15;100338.77;112687;1192;60937;-85
2021/10/24 00:20:18;;;;;;;35.70;19.80;;;;;;;5.21;83.21;100336.66;112481;1193;66674;-83
2021/10/24 00:22:45;;;;;;;29.80;20.20;;;;;;;5.21;83.30;100341.77;112659;1191;62155;-82
2021/10/24 00:25:12;;;;;;;29.90;18.80;;;;;;;5.20;83.33;100343.02;112579;1193;63977;-82
2021/10/24 00:27:38;;;;;;;30.80;17.60;;;;;;;5.22;83.33;100345.28;112631;1193;61038;-82
2021/10/24 00:30:06;;;;;;;30.40;17.90;;;;;;;5.22;83.42;100345.82;112649;1192;61063;-83
2021/10/24 00:32:33;;;;;;;31.40;17.50;;;;;;;5.21;83.39;100347.59;112636;1192;67065;-82
2021/10/24 00:34:59;;;;;;;31.70;16.20;;;;;;;5.20;83.47;100339.70;112655;1192;61020;-85
2021/10/24 00:37:26;;;;;;;30.50;16.70;;;;;;;5.20;83.51;100339.88;112665;1192;63749;-82
2021/10/24 00:39:53;;;;;;;31.10;16.10;;;;;;;5.19;83.57;100339.72;112603;1193;61068;-83
2021/10/24 00:42:19;;;;;;;29.40;16.90;;;;;;;5.19;83.60;100342.00;112500;1192;60959;-83
2021/10/24 00:44:46;;;;;;;24.30;13.00;;;;;;;5.19;83.69;100342.35;112482;1193;61094;-83
2021/10/24 00:47:13;;;;;;;27.50;14.00;;;;;;;5.19;83.67;100341.64;112658;1193;61009;-83
2021/10/24 00:49:40;;;;;;;24.00;13.70;;;;;;;5.19;83.67;100338.48;112657;1193;62490;-82
2021/10/24 00:52:07;;;;;;;29.30;15.50;;;;;;;5.19;83.69;100336.88;112674;1193;61144;-83
2021/10/24 00:54:37;;;;;;;24.60;13.70;;;;;;;5.19;83.80;100342.52;112704;1193;61029;-83
2021/10/24 00:57:04;;;;;;;23.60;12.40;;;;;;;5.20;83.85;100344.80;112722;1192;64674;-82
2021/10/24 00:59:31;;;;;;;21.20;12.40;;;;;;;5.19;83.87;100344.46;112669;1193;61055;-83
2021/10/24 01:01:57;;;;;;;27.20;12.50;;;;;;;5.19;83.88;100350.81;112375;1192;62333;-84
2021/10/24 01:04:24;;;;;;;24.00;12.60;;;;;;;5.19;83.89;100354.52;112670;1193;61019;-83
2021/10/24 01:06:53;;;;;;;25.40;12.90;;;;;;;5.18;83.91;100355.40;112681;1192;61075;-83
2021/10/24 01:09:23;;;;;;;23.70;12.40;;;;;;;5.19;83.95;100349.40;112734;1193;65635;-84
2021/10/24 01:11:51;;;;;;;29.30;14.00;;;;;;;5.20;84.04;100352.73;112752;1193;60981;-82
2021/10/24 01:14:18;;;;;;;24.30;12.50;;;;;;;5.19;83.99;100356.45;112535;1190;65059;-82
2021/10/24 01:16:44;;;;;;;30.90;13.00;;;;;;;5.18;84.03;100358.05;112668;1192;61065;-81
2021/10/24 01:19:13;;;;;;;23.30;12.40;;;;;;;5.17;84.07;100360.36;112438;1192;60994;-84
2021/10/24 01:21:39;;;;;;;22.10;12.80;;;;;;;5.18;84.03;100360.16;112718;1193;64341;-84
2021/10/24 01:24:06;;;;;;;27.00;13.20;;;;;;;5.19;84.03;100365.62;112663;1187;61078;-81
2021/10/24 01:26:37;;;;;;;27.30;12.10;;;;;;;5.19;84.06;100362.96;112619;1193;61052;-83
2021/10/24 01:29:06;;;;;;;26.70;13.30;;;;;;;5.19;84.06;100363.50;112683;1192;61129;-84
2021/10/24 01:31:33;;;;;;;22.00;12.00;;;;;;;5.18;84.00;100358.40;112700;1196;61049;-82
2021/10/24 01:34:01;;;;;;;23.20;11.10;;;;;;;5.17;84.11;100358.08;112665;1192;64788;-83
2021/10/24 01:36:27;;;;;;;23.70;12.60;;;;;;;5.17;84.17;100360.89;112684;1192;60992;-83
2021/10/24 01:38:54;;;;;;;22.50;13.00;;;;;;;5.15;84.19;100366.58;112792;1193;64876;-85
2021/10/24 01:41:27;;;;;;;25.60;13.30;;;;;;;5.13;84.22;100365.56;112569;1193;61023;-84
2021/10/24 01:43:55;;;;;;;24.00;13.80;;;;;;;5.11;84.36;100366.86;112682;1192;61057;-82
2021/10/24 01:46:22;;;;;;;28.90;13.00;;;;;;;5.07;84.41;100365.88;112703;1192;64394;-83
2021/10/24 01:48:49;;;;;;;24.60;12.80;;;;;;;5.04;84.44;100369.64;112654;1193;61065;-83
2021/10/24 01:51:16;;;;;;;27.60;13.90;;;;;;;5.02;84.55;100373.58;112433;1193;64663;-83
2021/10/24 01:53:45;;;;;;;24.20;12.50;;;;;;;4.99;84.65;100372.76;112601;1193;60978;-83
2021/10/24 01:56:14;;;;;;;27.80;13.70;;;;;;;4.96;84.66;100377.73;112652;1191;61004;-83
2021/10/24 01:58:41;;;;;;;24.30;14.20;;;;;;;4.93;84.78;100379.40;112707;1184;66062;-84
2021/10/24 02:01:09;;;;;;;23.20;13.90;;;;;;;4.89;84.85;100378.95;112465;1193;61066;-84
2021/10/24 02:03:36;;;;;;;25.70;14.60;;;;;;;4.85;84.86;100377.46;112559;1177;63823;-84
2021/10/24 02:06:04;;;;;;;24.30;16.10;;;;;;;4.80;84.96;100380.73;112476;1193;61033;-82
2021/10/24 02:08:31;;;;;;;27.70;17.60;;;;;;;4.74;85.07;100379.62;112521;1191;61013;-83
2021/10/24 02:10:57;;;;;;;29.80;15.70;;;;;;;4.68;85.22;100376.23;112652;1177;66834;-82
2021/10/24 02:13:24;;;;;;;29.60;16.00;;;;;;;4.60;85.32;100377.27;112684;1193;61053;-83
2021/10/24 02:15:51;;;;;;;28.50;15.00;;;;;;;4.52;85.41;100381.84;112656;1193;63817;-83
2021/10/24 02:18:17;;;;;;;26.40;13.70;;;;;;;4.42;85.56;100386.60;112652;1193;61029;-83
2021/10/24 02:20:44;;;;;;;27.70;14.90;;;;;;;4.34;85.66;100388.33;112715;1193;61015;-83
2021/10/24 02:23:11;;;;;;;28.50;15.00;;;;;;;4.28;85.79;100390.38;112636;1193;66010;-83
2021/10/24 02:25:38;;;;;;;30.60;16.20;;;;;;;4.22;85.90;100388.73;112609;1193;61516;-83
2021/10/24 02:28:05;;;;;;;26.50;16.50;;;;;;;4.13;85.96;100385.90;112664;1193;63948;-83
2021/10/24 02:30:32;;;;;;;27.70;16.10;;;;;;;4.07;86.16;100386.55;112585;1192;61041;-82
2021/10/24 02:32:58;;;;;;;31.60;16.20;;;;;;;3.99;86.27;100390.56;112678;1193;61049;-82
2021/10/24 02:35:25;;;;;;;28.40;17.00;;;;;;;3.91;86.35;100387.19;112629;1192;67056;-82
2021/10/24 02:37:53;;;;;;;28.10;16.10;;;;;;;3.83;86.54;100386.79;112668;1191;60963;-82
2021/10/24 02:40:21;;;;;;;21.70;14.90;;;;;;;3.75;86.64;100387.98;112697;1192;64229;-82
2021/10/24 02:42:49;;;;;;;24.40;15.00;;;;;;;3.69;86.78;100391.60;112494;1193;61144;-83
2021/10/24 02:45:16;;;;;;;25.00;16.20;;;;;;;3.64;86.91;100394.85;112666;1192;61049;-83
2021/10/24 02:47:43;;;;;;;31.60;15.90;;;;;;;3.59;87.01;100397.21;112469;1193;64371;-83
2021/10/24 02:50:09;;;;;;;30.80;17.20;;;;;;;3.53;87.17;100399.58;112634;1192;60982;-83
2021/10/24 02:52:36;;;;;;;23.80;16.50;;;;;;;3.49;87.24;100398.95;112687;1193;63640;-82
2021/10/24 02:55:05;;;;;;;34.50;21.20;;;;;;;3.43;87.30;100398.16;112661;1193;60982;-82
2021/10/24 02:57:31;;;;;;;30.10;22.30;;;;;;;3.37;87.42;100403.52;112629;1192;61087;-82
2021/10/24 02:59:58;;;;;;;34.50;22.30;;;;;;;3.31;87.44;100401.31;112572;1191;64688;-83
2021/10/24 03:02:25;;;;;;;37.30;22.20;;;;;;;3.26;87.53;100400.15;112611;1193;61058;-83
2021/10/24 03:04:51;;;;;;;36.70;23.40;;;;;;;3.21;87.56;100395.52;112584;1193;62361;-81
2021/10/24 03:07:18;;;;;;;38.20;24.10;;;;;;;3.14;87.60;100397.52;112653;1192;60968;-82
2021/10/24 03:09:44;;;;;;;36.30;22.20;;;;;;;3.08;87.72;100402.52;112670;1193;61010;-82
2021/10/24 03:12:11;;;;;;;36.40;24.50;;;;;;;3.03;87.76;100407.70;112650;1192;61045;-83
2021/10/24 03:14:37;;;;;;;48.40;25.60;;;;;;;2.98;87.83;100408.10;112693;1192;61010;-83
2021/10/24 03:17:04;;;;;;;47.60;26.80;;;;;;;2.95;88.00;100409.38;112751;1193;61035;-84
2021/10/24 03:19:30;;;;;;;44.30;27.20;;;;;;;2.90;88.10;100407.34;112640;1193;60933;-83
2021/10/24 03:21:57;;;;;;;45.60;28.30;;;;;;;2.85;88.27;100407.04;112672;1192;61397;-83
2021/10/24 03:24:23;;;;;;;43.60;27.40;;;;;;;2.80;88.31;100406.75;112661;1191;60934;-82
2021/10/24 03:26:50;;;;;;;56.60;33.90;;;;;;;2.76;88.40;100412.95;112635;1192;61155;-83
2021/10/24 03:29:16;;;;;;;69.90;44.80;;;;;;;2.72;88.56;100418.42;112645;1187;60972;-82
2021/10/24 03:31:43;;;;;;;86.00;58.90;;;;;;;2.68;88.65;100419.71;112600;1191;61083;-82
2021/10/24 03:34:09;;;;;;;88.70;63.60;;;;;;;2.66;88.76;100419.04;112643;1192;61014;-82
2021/10/24 03:36:36;;;;;;;87.80;63.20;;;;;;;2.64;88.89;100416.77;112647;1193;61013;-82
2021/10/24 03:39:03;;;;;;;53.60;38.50;;;;;;;2.62;88.99;100414.16;112652;1193;61215;-82
2021/10/24 03:41:29;;;;;;;39.50;25.90;;;;;;;2.59;89.08;100411.74;112555;1192;63810;-83
2021/10/24 03:43:56;;;;;;;39.00;24.90;;;;;;;2.55;89.18;100417.58;112609;1193;61087;-82
2021/10/24 03:46:22;;;;;;;37.30;24.00;;;;;;;2.52;89.23;100423.06;112656;1193;60984;-82
2021/10/24 03:48:49;;;;;;;34.10;24.20;;;;;;;2.50;89.34;100428.33;112703;1193;60971;-82
2021/10/24 03:51:15;;;;;;;37.90;27.60;;;;;;;2.48;89.31;100433.79;112726;1193;61014;-84
2021/10/24 03:53:42;;;;;;;58.40;36.60;;;;;;;2.45;89.28;100443.30;112613;1193;60933;-83
2021/10/24 03:56:08;;;;;;;43.00;31.40;;;;;;;2.42;89.40;100443.86;112585;1192;61156;-82
2021/10/24 03:58:35;;;;;;;54.70;35.10;;;;;;;2.40;89.45;100447.04;112608;1193;61055;-83
2021/10/24 04:01:01;;;;;;;52.10;31.60;;;;;;;2.38;89.62;100446.36;112649;1192;60998;-83
2021/10/24 04:03:28;;;;;;;56.10;37.10;;;;;;;2.34;89.61;100446.76;112669;1193;60927;-82
2021/10/24 04:05:54;;;;;;;56.50;32.90;;;;;;;2.30;89.68;100448.20;112677;1191;61029;-83
2021/10/24 04:08:21;;;;;;;52.10;32.40;;;;;;;2.29;89.86;100446.80;112626;1192;61045;-84
2021/10/24 04:10:47;;;;;;;68.90;40.20;;;;;;;2.28;89.83;100444.71;112624;1193;60991;-85
2021/10/24 04:13:14;;;;;;;99.90;59.40;;;;;;;2.26;89.78;100448.23;112671;1191;61007;-83
2021/10/24 04:15:41;;;;;;;89.90;49.90;;;;;;;2.24;89.80;100449.13;112688;1193;61159;-83
2021/10/24 04:18:08;;;;;;;70.70;40.20;;;;;;;2.20;89.85;100452.49;112674;1191;62312;-83
2021/10/24 04:20:35;;;;;;;48.70;32.00;;;;;;;2.17;89.92;100452.34;112665;1193;61055;-85
2021/10/24 04:23:02;;;;;;;39.60;26.40;;;;;;;2.13;89.97;100449.23;112632;1192;62521;-82
2021/10/24 04:25:29;;;;;;;33.60;23.40;;;;;;;2.10;89.85;100448.39;112440;1193;65893;-83
2021/10/24 04:27:56;;;;;;;30.10;22.00;;;;;;;2.07;89.83;100452.27;112647;1193;60997;-83
2021/10/24 04:30:22;;;;;;;28.70;20.40;;;;;;;2.02;89.93;100451.08;112649;1193;65102;-83
2021/10/24 04:32:49;;;;;;;30.40;20.10;;;;;;;1.99;90.03;100448.65;112641;1193;60991;-83
2021/10/24 04:35:16;;;;;;;27.30;19.70;;;;;;;1.96;90.02;100451.13;112660;1193;60940;-83
2021/10/24 04:37:43;;;;;;;33.10;22.20;;;;;;;1.92;90.04;100452.21;112623;1193;64518;-84
2021/10/24 04:40:11;;;;;;;39.50;28.40;;;;;;;1.89;90.20;100451.37;112658;1193;61046;-83
2021/10/24 04:42:37;;;;;;;35.60;23.90;;;;;;;1.87;90.31;100459.09;112705;1193;63023;-83
2021/10/24 04:45:06;;;;;;;39.60;25.50;;;;;;;1.86;90.31;100460.15;112688;1192;61055;-83
2021/10/24 04:47:33;;;;;;;39.30;26.20;;;;;;;1.85;90.29;100461.38;112735;1192;60946;-84
2021/10/24 04:50:00;;;;;;;41.30;29.60;;;;;;;1.83;90.33;100462.63;112628;1192;64305;-85
2021/10/24 04:52:26;;;;;;;40.30;27.50;;;;;;;1.81;90.41;100469.12;112599;1177;68313;-85
2021/10/24 04:54:53;;;;;;;49.50;32.10;;;;;;;1.81;90.51;100476.30;112704;1192;61058;-84
2021/10/24 04:57:19;;;;;;;51.50;36.00;;;;;;;1.79;90.56;100477.38;112683;1192;61039;-84
2021/10/24 04:59:46;;;;;;;45.60;33.60;;;;;;;1.76;90.47;100482.13;112709;1192;61131;-85
2021/10/24 05:02:13;;;;;;;43.10;32.40;;;;;;;1.72;90.39;100483.02;112627;1193;65658;-85
2021/10/24 05:04:40;;;;;;;40.50;27.80;;;;;;;1.67;90.28;100482.88;112673;1192;61382;-84
2021/10/24 05:07:07;;;;;;;35.20;25.60;;;;;;;1.62;90.26;100482.93;112644;1192;61008;-84
2021/10/24 05:09:33;;;;;;;32.90;21.50;;;;;;;1.57;90.38;100485.23;112607;1193;61055;-84
2021/10/24 05:12:00;;;;;;;35.20;23.90;;;;;;;1.52;90.37;100485.96;112707;1192;61045;-85
2021/10/24 05:14:26;;;;;;;34.30;24.40;;;;;;;1.50;90.55;100493.16;112569;1191;60972;-84
2021/10/24 05:16:53;;;;;;;35.00;24.60;;;;;;;1.50;90.60;100493.51;112702;1192;61019;-82
2021/10/24 05:19:20;;;;;;;34.20;22.50;;;;;;;1.49;90.60;100494.05;112508;1192;60968;-82
2021/10/24 05:21:47;;;;;;;29.10;22.80;;;;;;;1.46;90.62;100492.82;112776;1193;60949;-82
2021/10/24 05:24:14;;;;;;;33.30;24.70;;;;;;;1.45;90.58;100489.84;112702;1192;60968;-84
2021/10/24 05:26:40;;;;;;;35.50;24.10;;;;;;;1.45;90.69;100497.90;112660;1192;65661;-84
2021/10/24 05:29:07;;;;;;;36.90;28.30;;;;;;;1.43;90.56;100502.30;112683;1193;61089;-81
2021/10/24 05:31:34;;;;;;;53.40;38.50;;;;;;;1.42;90.58;100504.42;112586;1192;62330;-82
2021/10/24 05:34:01;;;;;;;46.30;34.00;;;;;;;1.43;90.71;100509.32;112662;1192;61022;-83
2021/10/24 05:36:27;;;;;;;44.10;32.40;;;;;;;1.44;90.72;100507.55;112607;1193;61023;-82
2021/10/24 05:38:54;;;;;;;55.50;39.40;;;;;;;1.45;90.63;100507.02;112674;1191;66066;-82
2021/10/24 05:41:20;;;;;;;48.40;35.70;;;;;;;1.46;90.64;100511.41;112581;1193;60943;-82
2021/10/24 05:43:47;;;;;;;47.00;36.00;;;;;;;1.46;90.59;100516.30;112595;1192;63928;-82
2021/10/24 05:46:14;;;;;;;48.10;34.80;;;;;;;1.47;90.73;100523.46;112638;1193;60987;-82
2021/10/24 05:48:40;;;;;;;41.40;33.80;;;;;;;1.50;90.67;100522.58;112432;1184;60968;-82
2021/10/24 05:51:09;;;;;;;44.60;33.20;;;;;;;1.50;90.57;100529.25;112666;1193;60968;-82
2021/10/24 05:53:36;;;;;;;47.70;34.70;;;;;;;1.51;90.51;100531.00;112473;1192;60994;-84
2021/10/24 05:56:04;;;;;;;44.50;33.40;;;;;;;1.52;90.47;100534.30;112698;1193;64026;-83
2021/10/24 05:58:30;;;;;;;40.40;32.60;;;;;;;1.52;90.42;100533.78;112634;1192;60969;-83
2021/10/24 06:00:57;;;;;;;41.10;33.40;;;;;;;1.55;90.39;100535.16;112594;1192;61064;-82
2021/10/24 06:03:24;;;;;;;39.20;33.60;;;;;;;1.59;90.45;100540.92;112575;1192;66686;-82
2021/10/24 06:05:50;;;;;;;41.80;34.10;;;;;;;1.63;90.36;100544.77;112674;1193;61126;-84
2021/10/24 06:08:23;;;;;;;40.00;32.60;;;;;;;1.68;90.25;100543.86;112517;1192;62554;-83
2021/10/24 06:10:54;;;;;;;42.50;34.20;;;;;;;1.71;90.29;100540.34;112652;1193;61053;-82
2021/10/24 06:13:21;;;;;;;41.00;31.80;;;;;;;1.76;90.23;100546.27;112664;1193;61016;-82
2021/10/24 06:15:49;;;;;;;39.20;33.90;;;;;;;1.81;90.08;100550.25;112506;1193;66100;-80
2021/10/24 06:18:16;;;;;;;39.50;35.20;;;;;;;1.84;90.09;100550.59;112621;1192;61029;-82
2021/10/24 06:20:42;;;;;;;44.30;35.10;;;;;;;1.89;90.16;100552.14;112675;1192;64030;-82
2021/10/24 06:23:09;;;;;;;43.80;36.20;;;;;;;1.96;90.30;100555.08;112479;1177;60968;-81
2021/10/24 06:25:36;;;;;;;44.20;36.10;;;;;;;2.02;90.26;100555.73;112671;1192;59989;-81
2021/10/24 06:28:02;;;;;;;42.20;35.30;;;;;;;2.09;90.33;100561.29;112571;1184;66670;-81
2021/10/24 06:30:29;;;;;;;42.50;34.60;;;;;;;2.17;90.34;100559.13;112646;1193;61004;-81
2021/10/24 06:32:56;;;;;;;45.80;35.80;;;;;;;2.25;90.40;100563.63;112570;1192;63774;-82
2021/10/24 06:35:22;;;;;;;42.60;34.50;;;;;;;2.38;90.52;100565.80;112583;1192;61378;-81
2021/10/24 06:37:49;;;;;;;38.80;32.60;;;;;;;2.53;90.46;100565.68;112621;1193;61054;-80
2021/10/24 06:40:17;;;;;;;43.00;34.10;;;;;;;2.67;90.30;100562.38;112611;1177;66733;-81
2021/10/24 06:42:45;;;;;;;40.90;34.40;;;;;;;2.82;90.12;100562.95;112672;1193;61176;-83
2021/10/24 06:45:12;;;;;;;40.70;34.50;;;;;;;2.97;90.01;100564.72;112644;1192;65027;-83
2021/10/24 06:47:39;;;;;;;44.70;33.60;;;;;;;3.14;90.08;100567.16;112604;1193;61744;-83
2021/10/24 06:50:08;;;;;;;43.10;34.50;;;;;;;3.27;89.87;100569.11;112611;1193;60905;-82
2021/10/24 06:52:35;;;;;;;39.20;31.90;;;;;;;3.37;89.86;100564.44;112643;1192;64703;-83
2021/10/24 06:55:03;;;;;;;47.60;36.60;;;;;;;3.45;89.92;100566.80;112594;1192;61055;-81
2021/10/24 06:57:30;;;;;;;44.00;38.00;;;;;;;3.53;90.00;100571.08;112662;1192;64036;-82
2021/10/24 06:59:56;;;;;;;52.10;39.20;;;;;;;3.63;90.11;100574.83;112657;1193;61058;-81
2021/10/24 07:02:23;;;;;;;69.90;48.50;;;;;;;3.73;90.10;100574.52;112634;1192;61061;-82
2021/10/24 07:04:50;;;;;;;76.10;49.40;;;;;;;3.84;90.23;100568.75;112445;1193;65702;-84
2021/10/24 07:07:23;;;;;;;69.00;49.00;;;;;;;3.96;90.27;100569.98;112559;1192;61047;-84
2021/10/24 07:09:50;;;;;;;58.90;45.10;;;;;;;4.09;90.26;100566.42;112541;1192;62326;-84
2021/10/24 07:12:16;;;;;;;56.40;37.70;;;;;;;4.22;90.33;100568.16;112639;1193;61071;-84
2021/10/24 07:14:43;;;;;;;42.60;30.00;;;;;;;4.34;90.37;100565.16;112638;1192;61074;-82
2021/10/24 07:17:09;;;;;;;33.60;25.00;;;;;;;4.46;90.33;100569.54;112609;1191;61020;-82
2021/10/24 07:19:36;;;;;;;33.30;21.40;;;;;;;4.59;90.31;100576.54;112514;1193;61070;-82
2021/10/24 07:22:02;;;;;;;36.60;24.70;;;;;;;4.72;90.27;100574.89;112648;1192;61036;-82
2021/10/24 07:24:29;;;;;;;35.00;23.90;;;;;;;4.85;90.17;100576.95;112488;1192;61000;-83
2021/10/24 07:26:55;;;;;;;30.60;20.50;;;;;;;4.97;90.10;100576.75;112599;1192;61030;-82
2021/10/24 07:29:22;;;;;;;29.50;18.40;;;;;;;5.10;90.08;100573.50;112584;1191;60940;-83
2021/10/24 07:31:50;;;;;;;24.80;16.50;;;;;;;5.21;90.09;100575.93;112620;1192;61023;-82
2021/10/24 07:34:16;;;;;;;27.40;16.70;;;;;;;5.32;89.99;100577.48;112651;1192;63935;-83
2021/10/24 07:36:43;;;;;;;31.70;19.00;;;;;;;5.42;89.95;100581.67;112660;1193;61025;-83
2021/10/24 07:39:09;;;;;;;31.50;20.90;;;;;;;5.55;89.94;100585.66;112647;1192;60927;-82
2021/10/24 07:41:36;;;;;;;34.90;23.60;;;;;;;5.65;89.82;100583.14;112642;1193;67003;-83
2021/10/24 07:44:05;;;;;;;39.30;25.40;;;;;;;5.74;89.57;100585.25;112514;1193;60944;-83
2021/10/24 07:46:32;;;;;;;36.00;23.30;;;;;;;5.81;89.36;100582.98;112637;1193;63625;-84
2021/10/24 07:48:59;;;;;;;33.40;22.30;;;;;;;5.88;89.11;100583.18;112664;1193;61091;-83
2021/10/24 07:51:26;;;;;;;27.70;20.10;;;;;;;5.95;88.88;100580.23;112688;1192;61084;-82
2021/10/24 07:53:53;;;;;;;30.00;19.70;;;;;;;6.02;88.70;100578.84;112686;1192;67106;-81
2021/10/24 07:56:20;;;;;;;26.30;17.70;;;;;;;6.12;88.63;100582.85;112636;1192;60991;-84
2021/10/24 07:58:47;;;;;;;29.10;18.80;;;;;;;6.22;88.56;100584.20;112642;1192;62439;-83
2021/10/24 08:01:16;;;;;;;34.10;20.60;;;;;;;6.31;88.15;100585.23;112579;1192;61023;-82
2021/10/24 08:03:44;;;;;;;23.20;12.70;;;;;;;6.38;88.00;100586.11;112578;1191;60966;-84
2021/10/24 08:06:10;;;;;;;24.40;13.60;;;;;;;6.46;87.90;100589.27;112722;1193;64359;-83
2021/10/24 08:08:37;;;;;;;22.40;11.90;;;;;;;6.53;87.71;100591.56;112677;1192;61078;-83
2021/10/24 08:11:05;;;;;;;22.20;12.40;;;;;;;6.58;87.52;100587.02;112594;1191;62662;-84
2021/10/24 08:13:32;;;;;;;20.50;12.40;;;;;;;6.65;87.47;100585.80;112785;1192;61044;-84
2021/10/24 08:15:59;;;;;;;24.90;12.50;;;;;;;6.72;87.27;100583.67;112791;1192;60966;-84
2021/10/24 08:18:25;;;;;;;21.00;12.30;;;;;;;6.78;87.14;100584.22;112635;1193;67098;-83
2021/10/24 08:20:52;;;;;;;23.10;12.40;;;;;;;6.87;87.01;100585.77;112711;1184;61022;-84
2021/10/24 08:23:19;;;;;;;20.10;12.40;;;;;;;6.91;86.57;100586.52;112591;1192;64837;-83
2021/10/24 08:25:45;;;;;;;21.30;11.90;;;;;;;6.95;86.46;100592.98;112625;1193;61007;-83
2021/10/24 08:28:12;;;;;;;22.20;13.20;;;;;;;7.01;86.35;100590.00;112675;1193;61048;-82
2021/10/24 08:30:39;;;;;;;25.20;12.50;;;;;;;7.09;86.36;100587.66;112644;1192;64659;-83
2021/10/24 08:33:06;;;;;;;20.80;12.20;;;;;;;7.16;86.14;100591.16;112663;1193;61079;-83
2021/10/24 08:35:32;;;;;;;16.90;10.00;;;;;;;7.23;86.14;100593.10;112663;1192;61363;-82
2021/10/24 08:37:59;;;;;;;18.80;11.70;;;;;;;7.31;86.04;100593.94;112696;1192;60991;-82
2021/10/24 08:40:28;;;;;;;19.10;11.20;;;;;;;7.38;85.92;100592.52;112571;1192;61004;-81
2021/10/24 08:43:03;;;;;;;21.50;10.80;;;;;;;7.46;85.71;100588.23;112690;1191;65991;-82
2021/10/24 08:45:30;;;;;;;17.60;10.50;;;;;;;7.54;85.47;100589.60;112611;1192;61013;-82
2021/10/24 08:47:57;;;;;;;17.20;10.30;;;;;;;7.59;85.15;100589.61;112670;1193;63650;-82
2021/10/24 08:50:23;;;;;;;19.10;9.40;;;;;;;7.64;85.12;100588.23;112601;1193;61048;-83
2021/10/24 08:52:56;;;;;;;14.10;8.50;;;;;;;7.72;85.03;100594.20;112598;1193;60998;-82
2021/10/24 08:55:22;;;;;;;13.70;8.10;;;;;;;7.80;84.98;100600.32;112621;1192;66818;-80
2021/10/24 08:57:49;;;;;;;15.60;9.00;;;;;;;7.85;84.68;100599.98;112637;1193;60962;-83
2021/10/24 09:00:16;;;;;;;17.80;8.30;;;;;;;7.92;84.56;100599.41;112656;1192;62658;-82
2021/10/24 09:03:04;;;;;;;13.20;6.90;;;;;;;7.99;84.26;100601.50;112602;1192;61058;-80
2021/10/24 09:05:39;;;;;;;13.00;7.10;;;;;;;8.05;83.65;100601.88;112544;1192;61058;-79
2021/10/24 09:08:19;;;;;;;15.20;8.40;;;;;;;8.07;83.66;100603.02;112634;1193;64500;-77
2021/10/24 09:10:54;;;;;;;16.50;7.10;;;;;;;8.16;83.61;100600.27;112525;1192;61061;-77
2021/10/24 09:13:27;;;;;;;15.60;7.40;;;;;;;8.21;83.23;100602.24;112600;1192;62330;-75
2021/10/24 09:15:59;;;;;;;14.60;8.20;;;;;;;8.23;83.28;100605.02;112468;1192;60999;-78
2021/10/24 09:18:33;;;;;;;14.00;7.80;;;;;;;8.31;83.39;100600.35;112474;1191;60978;-77
2021/10/24 09:21:15;;;;;;;15.40;7.40;;;;;;;8.39;83.18;100599.92;112492;1193;64606;-76
2021/10/24 09:23:46;;;;;;;13.00;5.80;;;;;;;8.48;82.99;100599.98;112489;1192;60965;-76
2021/10/24 09:26:23;;;;;;;11.70;7.00;;;;;;;8.54;82.48;100598.23;112414;1193;63948;-77
2021/10/24 09:28:56;;;;;;;15.10;6.80;;;;;;;8.58;81.98;100600.77;112547;1191;61147;-76
2021/10/24 09:31:33;;;;;;;15.80;7.20;;;;;;;8.61;82.11;100603.30;112318;1192;61397;-75
2021/10/24 09:34:22;;;;;;;15.30;6.70;;;;;;;8.70;81.92;100607.09;112541;1191;65706;-76
2021/10/24 09:36:59;;;;;;;18.90;8.30;;;;;;;8.69;81.14;100606.21;112473;1192;60984;-76
2021/10/24 09:39:30;;;;;;;14.20;6.90;;;;;;;8.78;81.38;100608.23;112500;1192;64681;-76
2021/10/24 09:42:17;;;;;;;12.70;6.20;;;;;;;8.94;81.19;100604.52;112547;1193;61093;-76
2021/10/24 09:45:06;;;;;;;15.00;6.30;;;;;;;9.12;81.03;100601.56;112545;1193;60937;-77
2021/10/24 09:47:41;;;;;;;12.90;6.50;;;;;;;9.19;80.55;100602.20;112465;1193;64530;-76
2021/10/24 09:50:33;;;;;;;16.40;7.00;;;;;;;9.21;80.18;100596.25;112484;1193;61188;-80
2021/10/24 09:53:15;;;;;;;14.80;5.70;;;;;;;9.37;80.21;100596.95;112470;1192;63852;-80
2021/10/24 09:55:46;;;;;;;15.60;6.20;;;;;;;9.74;79.94;100596.84;112584;1193;61497;-80
2021/10/24 09:58:13;;;;;;;11.20;5.10;;;;;;;10.11;79.49;100597.89;112647;1187;61055;-80
2021/10/24 10:00:41;;;;;;;12.30;5.70;;;;;;;10.38;78.73;100599.15;112548;1192;65831;-81
2021/10/24 10:03:08;;;;;;;15.40;6.00;;;;;;;10.45;78.04;100602.97;112601;1192;61013;-80
2021/10/24 10:05:36;;;;;;;14.80;7.10;;;;;;;10.46;77.88;100603.30;112580;1187;64667;-79
2021/10/24 10:08:08;;;;;;;15.70;6.80;;;;;;;10.47;77.65;100605.52;112627;1193;60985;-81
2021/10/24 10:10:49;;;;;;;15.80;6.70;;;;;;;10.52;77.30;100603.92;112500;1193;61052;-87
2021/10/24 10:13:21;;;;;;;14.40;6.50;;;;;;;10.61;77.20;100602.13;113175;1192;64480;-86
2021/10/24 10:15:50;;;;;;;13.80;5.60;;;;;;;10.73;76.85;100601.42;112614;1192;61163;-86
2021/10/24 10:18:21;;;;;;;14.60;6.30;;;;;;;10.86;76.63;100604.66;112775;1192;63814;-84
2021/10/24 10:20:53;;;;;;;10.00;5.40;;;;;;;10.90;76.24;100599.13;112735;1192;60994;-83
2021/10/24 10:23:39;;;;;;;12.10;5.30;;;;;;;10.91;76.09;100592.16;112621;1192;61233;-82
2021/10/24 10:26:35;;;;;;;11.80;5.10;;;;;;;11.10;75.60;100597.91;112699;1193;64688;-84
2021/10/24 10:29:26;;;;;;;11.60;4.50;;;;;;;11.31;74.54;100594.13;112696;1192;61004;-88
2021/10/24 10:32:13;;;;;;;10.10;5.00;;;;;;;11.36;74.08;100595.90;112464;1193;63849;-84
2021/10/24 10:35:01;;;;;;;10.60;5.30;;;;;;;11.28;74.11;100594.30;112725;1192;61062;-87
2021/10/24 10:37:49;;;;;;;15.40;5.90;;;;;;;11.37;74.14;100588.33;112918;1192;61165;-86
2021/10/24 10:40:29;;;;;;;13.00;5.60;;;;;;;11.48;73.71;100583.77;112730;1192;64393;-85
2021/10/24 10:43:10;;;;;;;11.30;5.30;;;;;;;11.39;73.19;100585.27;112808;1192;60985;-87
2021/10/24 10:46:03;;;;;;;12.10;5.40;;;;;;;11.22;73.12;100577.46;112850;1192;64021;-88
2021/10/24 10:48:36;;;;;;;11.40;5.80;;;;;;;11.12;73.21;100574.34;112674;1193;60976;-87
2021/10/24 10:51:24;;;;;;;12.90;5.40;;;;;;;11.20;72.91;100567.44;112684;1193;61081;-87
2021/10/24 10:53:58;;;;;;;13.50;5.40;;;;;;;11.29;72.53;100569.70;112643;1192;65888;-84
2021/10/24 10:56:26;;;;;;;11.30;5.10;;;;;;;11.40;72.44;100565.28;112740;1191;60943;-87
2021/10/24 10:58:55;;;;;;;8.00;4.70;;;;;;;11.50;72.44;100561.80;112706;1192;63805;-86
2021/10/24 11:01:37;;;;;;;10.30;4.60;;;;;;;11.61;71.95;100558.98;112599;1192;61113;-86
2021/10/24 11:04:07;;;;;;;9.30;4.40;;;;;;;11.70;71.25;100555.53;112601;1193;61050;-79
2021/10/24 11:06:33;;;;;;;12.60;4.30;;;;;;;11.78;70.77;100552.31;112694;1192;65854;-86
2021/10/24 11:09:05;;;;;;;9.10;4.10;;;;;;;11.83;70.19;100553.15;112552;1192;61074;-79
2021/10/24 11:11:41;;;;;;;7.30;3.50;;;;;;;11.90;70.39;100552.69;112649;1192;63648;-91
2021/10/24 11:14:14;;;;;;;9.10;3.70;;;;;;;12.00;69.56;100544.89;112916;1193;60946;-85
2021/10/24 11:16:57;;;;;;;10.10;4.00;;;;;;;12.04;68.81;100542.23;112667;1192;61023;-84